KBUU

Burlington Municipal Airport

Burlington, Wisconsin, USA
METAR KBUU 140455Z AUTO 32003KT 10SM CLR M20/M26 A3048 RMK AO2 T12051261
Observed Flight Rules
Nov-14 @ 04:55 UTC (7 minutes ago) Visual Flight Rules
Wind Visibility Clouds
320° at 3 knots 10 miles
  • Clear skies
Temperatures Readings
Current -21°C / -6°F
Dewpoint -26°C / -15°F
Humidity 64%
Altimeter 30.48" Hg
Pressure 1032 hPa
Elevation 237
METAR KBUU 140455Z AUTO 32003KT 10SM CLR M20/M26 A3048 RMK AO2 T12051261
Observed Flight Rules
Nov-14 @ 04:55 UTC
(7 minutes ago)
VFR
Wind Visibility
320° at 3 knots 10 miles
Clouds
  • Clear skies
Temperature Dewpoint
-21°C / -6°F -26°C / -15°F
Humidity Altimeter Pressure
64% 30.48" Hg 1032 hPa